createdAt,value
2022-10-17T00:01:46.133Z,3.06
2022-10-17T00:04:15.247Z,3.07
2022-10-17T00:06:44.817Z,3.04
2022-10-17T00:09:15.433Z,3.07
2022-10-17T00:11:46.389Z,3.09
2022-10-17T00:14:15.495Z,2.98
2022-10-17T00:16:45.158Z,2.97
2022-10-17T00:19:14.345Z,3.03
2022-10-17T00:21:43.364Z,2.97
2022-10-17T00:24:12.370Z,3.13
2022-10-17T00:26:41.492Z,3.21
2022-10-17T00:29:12.009Z,3.20
2022-10-17T00:31:41.725Z,3.14
2022-10-17T00:34:10.925Z,3.02
2022-10-17T00:36:41.225Z,3.06
2022-10-17T00:39:10.984Z,3.08
2022-10-17T00:41:41.660Z,3.12
2022-10-17T00:44:47.728Z,3.30
2022-10-17T00:47:22.417Z,3.37
2022-10-17T00:49:53.547Z,3.24
2022-10-17T00:52:26.810Z,3.21
2022-10-17T00:55:00.150Z,3.29
2022-10-17T00:57:32.944Z,3.27
2022-10-17T01:00:05.966Z,3.18
2022-10-17T01:02:39.145Z,3.34
2022-10-17T01:05:09.973Z,3.55
2022-10-17T01:07:41.149Z,3.62
2022-10-17T01:10:12.173Z,3.62
2022-10-17T01:12:53.306Z,3.50
2022-10-17T01:15:30.859Z,3.44
2022-10-17T01:18:15.092Z,3.45
2022-10-17T01:21:10.841Z,3.41
2022-10-17T01:24:09.760Z,3.36
2022-10-17T01:26:56.725Z,3.35
2022-10-17T01:29:37.007Z,3.36
2022-10-17T01:32:16.935Z,3.47
2022-10-17T01:34:56.210Z,3.59
2022-10-17T01:37:32.070Z,3.56
2022-10-17T01:40:10.752Z,3.50
2022-10-17T01:42:47.362Z,3.44
2022-10-17T01:45:22.702Z,3.52
2022-10-17T01:47:55.832Z,3.48
2022-10-17T01:50:33.538Z,3.46
2022-10-17T01:53:06.492Z,3.43
2022-10-17T01:55:39.638Z,3.47
2022-10-17T01:58:14.328Z,3.45
2022-10-17T02:00:46.883Z,3.45
2022-10-17T02:03:20.510Z,3.51
2022-10-17T02:05:50.115Z,3.52
2022-10-17T02:08:27.841Z,3.54
2022-10-17T02:11:03.161Z,3.50
2022-10-17T02:13:44.758Z,3.47
2022-10-17T02:16:23.958Z,3.45
2022-10-17T02:19:09.348Z,3.51
2022-10-17T02:22:12.649Z,3.66
2022-10-17T02:25:07.660Z,3.64
2022-10-17T02:27:46.793Z,3.57
2022-10-17T02:30:24.917Z,3.51
2022-10-17T02:32:59.318Z,3.55
2022-10-17T02:35:34.251Z,3.49
2022-10-17T02:38:06.840Z,3.46
2022-10-17T02:40:38.546Z,3.46
2022-10-17T02:43:08.371Z,3.49
2022-10-17T02:45:42.224Z,3.52
2022-10-17T02:48:21.136Z,3.54
2022-10-17T02:51:00.124Z,3.61
2022-10-17T02:53:37.521Z,3.56
2022-10-17T02:56:15.353Z,3.70
2022-10-17T02:58:51.710Z,3.63
2022-10-17T03:01:23.853Z,3.60
2022-10-17T03:04:05.685Z,3.56
2022-10-17T03:06:36.408Z,3.48
2022-10-17T03:09:06.017Z,3.49
2022-10-17T03:11:35.757Z,3.48
2022-10-17T03:14:06.864Z,3.50
2022-10-17T03:16:36.203Z,3.55
2022-10-17T03:19:06.594Z,3.57
2022-10-17T03:21:38.259Z,3.51
2022-10-17T03:24:09.196Z,3.60
2022-10-17T03:26:38.610Z,3.55
2022-10-17T03:29:12.264Z,3.48
2022-10-17T03:31:41.873Z,3.46
2022-10-17T03:34:12.801Z,3.54
2022-10-17T03:36:43.435Z,3.55
2022-10-17T03:39:12.908Z,3.50
2022-10-17T03:41:43.162Z,3.55
2022-10-17T03:44:13.480Z,3.64
2022-10-17T03:46:44.050Z,3.70
2022-10-17T03:49:14.503Z,3.79
2022-10-17T03:51:45.799Z,3.87
2022-10-17T03:54:23.421Z,4.07
2022-10-17T03:57:25.747Z,4.15
2022-10-17T03:59:59.392Z,4.10
2022-10-17T04:02:30.543Z,3.98
2022-10-17T04:05:01.803Z,3.97
2022-10-17T04:08:04.732Z,4.04
2022-10-17T04:11:22.982Z,3.97
2022-10-17T04:17:18.084Z,3.98
2022-10-17T04:19:50.231Z,4.28
2022-10-17T04:22:21.328Z,4.36
2022-10-17T04:24:54.039Z,4.61
2022-10-17T04:27:29.868Z,4.72
2022-10-17T04:29:59.297Z,4.80
2022-10-17T04:32:29.002Z,4.94
2022-10-17T04:35:10.555Z,5.12
2022-10-17T04:37:43.249Z,4.99
2022-10-17T04:40:25.005Z,5.06
2022-10-17T04:42:56.278Z,4.95
2022-10-17T04:45:33.351Z,5.13
2022-10-17T04:48:09.310Z,5.06
2022-10-17T04:50:38.904Z,5.01
2022-10-17T04:53:35.003Z,5.09
2022-10-17T04:56:10.225Z,5.27
2022-10-17T04:58:39.892Z,5.43
2022-10-17T05:01:11.620Z,5.40
2022-10-17T05:03:44.965Z,5.42
2022-10-17T05:06:18.042Z,5.48
2022-10-17T05:08:53.588Z,5.47
2022-10-17T05:11:27.374Z,5.61
2022-10-17T05:13:59.356Z,5.78
2022-10-17T05:16:30.210Z,5.81
2022-10-17T05:19:01.738Z,5.90
2022-10-17T05:21:37.593Z,5.76
2022-10-17T05:24:11.699Z,5.74
2022-10-17T05:26:44.401Z,5.85
2022-10-17T05:29:15.422Z,6.00
2022-10-17T05:31:50.427Z,6.03
2022-10-17T05:34:21.494Z,6.06
2022-10-17T05:36:51.369Z,5.92
2022-10-17T05:39:26.345Z,5.83
2022-10-17T05:42:03.896Z,5.69
2022-10-17T05:44:33.749Z,5.69
2022-10-17T05:51:12.106Z,5.76
2022-10-17T05:54:25.016Z,5.69
2022-10-17T05:57:19.284Z,5.76
2022-10-17T05:59:51.346Z,5.91
2022-10-17T06:02:26.649Z,6.02
2022-10-17T06:05:03.861Z,6.23
2022-10-17T06:07:36.079Z,6.43
2022-10-17T06:10:09.374Z,6.68
2022-10-17T06:12:43.342Z,6.80
2022-10-17T06:15:18.417Z,6.94
2022-10-17T06:17:58.354Z,7.22
2022-10-17T06:20:45.211Z,7.41
2022-10-17T06:23:17.952Z,7.26
2022-10-17T06:26:01.555Z,7.55
2022-10-17T06:28:39.030Z,7.74
2022-10-17T06:31:09.043Z,7.78
2022-10-17T06:33:40.000Z,7.88
2022-10-17T06:36:16.465Z,7.95
2022-10-17T06:38:48.577Z,8.06
2022-10-17T06:41:26.915Z,7.98
2022-10-17T06:43:59.242Z,7.88
2022-10-17T06:46:30.175Z,7.61
2022-10-17T06:49:09.526Z,7.36
2022-10-17T06:51:54.031Z,7.30
2022-10-17T06:54:33.083Z,7.25
2022-10-17T06:57:43.031Z,7.14
2022-10-17T07:00:44.962Z,7.04
2022-10-17T07:03:15.785Z,7.11
2022-10-17T07:05:52.944Z,7.33
2022-10-17T07:08:24.657Z,7.52
2022-10-17T07:10:55.745Z,7.79
2022-10-17T07:13:26.424Z,8.02
2022-10-17T07:16:02.034Z,7.97
2022-10-17T07:18:34.253Z,7.90
2022-10-17T07:21:05.832Z,7.92
2022-10-17T07:23:37.113Z,7.97
2022-10-17T07:26:09.467Z,8.42
2022-10-17T07:28:45.573Z,8.50
2022-10-17T07:31:43.319Z,8.74
2022-10-17T07:34:13.673Z,8.83
2022-10-17T07:36:44.873Z,8.97
2022-10-17T07:39:16.891Z,9.15
2022-10-17T07:41:57.542Z,9.07
2022-10-17T07:44:27.471Z,8.99
2022-10-17T07:47:08.974Z,8.97
2022-10-17T07:50:56.290Z,8.90
2022-10-17T07:54:19.033Z,8.90
2022-10-17T07:58:34.965Z,8.92
2022-10-17T08:05:55.691Z,8.79
2022-10-17T08:12:15.351Z,8.48
2022-10-17T08:14:58.957Z,8.36
2022-10-17T08:17:32.762Z,8.25
2022-10-17T08:20:25.210Z,8.15
2022-10-17T08:30:01.363Z,7.43
2022-10-17T08:35:24.072Z,7.28
2022-10-17T08:56:48.450Z,5.71
2022-10-17T08:59:30.952Z,5.89
2022-10-17T09:02:16.248Z,5.79
2022-10-17T09:05:02.009Z,5.90
2022-10-17T09:08:14.963Z,6.01
2022-10-17T09:10:58.159Z,6.19
2022-10-17T09:13:54.466Z,6.28
2022-10-17T09:17:02.754Z,6.30
2022-10-17T09:20:11.007Z,6.14
2022-10-17T09:23:47.714Z,6.08
2022-10-17T09:26:54.224Z,6.23
2022-10-17T09:29:39.016Z,6.34
2022-10-17T09:32:46.277Z,6.64
2022-10-17T09:35:26.800Z,6.59
2022-10-17T09:38:11.184Z,6.66
2022-10-17T09:41:04.734Z,6.53
2022-10-17T09:43:54.097Z,6.35
2022-10-17T09:46:31.233Z,6.28
2022-10-17T09:49:07.466Z,6.16
2022-10-17T09:51:39.871Z,6.18
2022-10-17T09:54:19.552Z,6.17
2022-10-17T09:57:01.144Z,6.16
2022-10-17T09:59:34.027Z,5.98
2022-10-17T10:02:22.950Z,6.09
2022-10-17T10:05:04.314Z,6.24
2022-10-17T10:07:39.165Z,6.52
2022-10-17T10:10:40.274Z,6.45
2022-10-17T10:13:53.750Z,6.43
2022-10-17T10:16:31.557Z,6.40
2022-10-17T10:19:18.050Z,6.34
2022-10-17T10:21:59.444Z,6.49
2022-10-17T10:24:33.143Z,6.47
2022-10-17T10:27:12.896Z,6.61
2022-10-17T10:29:54.062Z,6.68
2022-10-17T10:32:35.874Z,6.69
2022-10-17T10:35:23.470Z,6.84
2022-10-17T10:38:05.316Z,6.91
2022-10-17T10:40:54.874Z,6.90
2022-10-17T10:43:41.921Z,6.84
2022-10-17T10:49:36.993Z,6.99
2022-10-17T10:52:10.453Z,7.16
2022-10-17T10:54:51.159Z,7.28
2022-10-17T11:00:46.567Z,7.15
2022-10-17T11:03:35.607Z,7.25
2022-10-17T11:06:18.970Z,7.38
2022-10-17T11:08:53.186Z,7.30
2022-10-17T11:21:21.576Z,6.81
2022-10-17T11:24:01.378Z,6.80
2022-10-17T11:26:43.788Z,6.83
2022-10-17T11:29:15.851Z,6.83
2022-10-17T11:31:53.653Z,6.79
2022-10-17T11:34:29.654Z,6.86
2022-10-17T11:37:12.584Z,6.94
2022-10-17T11:39:50.267Z,6.98
2022-10-17T11:42:28.986Z,7.05
2022-10-17T11:45:20.418Z,6.98
2022-10-17T11:48:14.409Z,6.92
2022-10-17T11:52:04.042Z,6.88
2022-10-17T11:55:43.166Z,6.88
2022-10-17T12:13:57.249Z,7.09
2022-10-17T12:16:47.352Z,7.17
2022-10-17T12:19:38.100Z,7.14
2022-10-17T12:22:33.542Z,7.08
2022-10-17T12:25:13.234Z,7.01
2022-10-17T12:27:46.332Z,7.05
2022-10-17T12:30:23.565Z,7.06
2022-10-17T12:33:25.419Z,7.04
2022-10-17T12:36:32.709Z,6.97
2022-10-17T12:39:56.285Z,6.92
2022-10-17T12:42:50.373Z,7.02
2022-10-17T12:46:23.834Z,6.93
2022-10-17T12:49:15.971Z,6.83
2022-10-17T12:52:23.269Z,6.91
2022-10-17T12:55:20.707Z,6.93
2022-10-17T12:58:21.515Z,6.86
2022-10-17T13:01:23.227Z,6.83
2022-10-17T13:03:54.555Z,6.83
2022-10-17T13:06:55.776Z,6.90
2022-10-17T13:09:30.452Z,6.92
2022-10-17T13:12:30.148Z,6.96
2022-10-17T13:15:03.364Z,6.90
2022-10-17T13:17:40.651Z,6.84
2022-10-17T13:20:27.530Z,6.83
2022-10-17T13:23:33.835Z,6.88
2022-10-17T13:26:20.631Z,6.90
2022-10-17T13:29:05.548Z,6.82
2022-10-17T13:32:27.064Z,6.83
2022-10-17T13:35:16.050Z,6.81
2022-10-17T13:37:53.974Z,6.78
2022-10-17T13:40:44.566Z,6.89
2022-10-17T13:43:26.775Z,6.99
2022-10-17T13:46:32.494Z,7.02
2022-10-17T13:49:55.170Z,6.92
2022-10-17T13:52:30.835Z,6.83
2022-10-17T13:55:27.965Z,6.84
2022-10-17T13:58:21.609Z,6.83
2022-10-17T14:00:54.812Z,7.05
2022-10-17T14:03:47.509Z,7.16
2022-10-17T14:06:22.783Z,7.49
2022-10-17T14:09:26.910Z,7.57
2022-10-17T14:12:08.850Z,7.57
2022-10-17T14:15:05.541Z,7.44
2022-10-17T14:17:40.866Z,7.38
2022-10-17T14:24:48.085Z,7.22
2022-10-17T14:27:32.161Z,7.33
2022-10-17T14:30:55.680Z,7.30
2022-10-17T14:33:29.718Z,7.21
2022-10-17T14:47:51.518Z,6.51
2022-10-17T14:50:48.668Z,6.62
2022-10-17T14:53:24.401Z,6.56
2022-10-17T14:56:06.489Z,6.60
2022-10-17T14:58:57.822Z,6.51
2022-10-17T15:01:40.411Z,6.50
2022-10-17T15:04:15.620Z,6.48
2022-10-17T15:06:45.921Z,6.50
2022-10-17T15:09:29.118Z,6.62
2022-10-17T15:12:03.052Z,6.72
2022-10-17T15:14:43.493Z,6.96
2022-10-17T15:17:17.094Z,7.09
2022-10-17T15:19:50.966Z,6.99
2022-10-17T15:22:22.852Z,7.07
2022-10-17T15:26:09.784Z,7.18
2022-10-17T15:28:41.014Z,7.24
2022-10-17T15:32:03.078Z,7.22
2022-10-17T15:37:52.350Z,7.20
2022-10-17T15:40:28.985Z,7.13
2022-10-17T15:43:20.087Z,7.29
2022-10-17T15:45:52.421Z,7.45
2022-10-17T15:48:32.424Z,7.73
2022-10-17T15:51:15.024Z,7.73
2022-10-17T15:57:14.717Z,7.36
2022-10-17T16:00:15.484Z,7.44
2022-10-17T16:02:52.399Z,7.54
2022-10-17T16:05:32.362Z,7.56
2022-10-17T16:08:59.101Z,7.64
2022-10-17T16:11:39.083Z,7.50
2022-10-17T16:14:32.078Z,7.56
2022-10-17T16:17:17.240Z,7.56
2022-10-17T16:19:48.301Z,7.71
2022-10-17T16:22:26.689Z,7.57
2022-10-17T16:25:10.900Z,7.66
2022-10-17T16:37:00.369Z,7.52
2022-10-17T16:43:49.292Z,7.73
2022-10-17T16:46:35.242Z,7.78
2022-10-17T16:49:11.226Z,7.70
2022-10-17T16:51:52.576Z,7.63
2022-10-17T16:54:30.217Z,7.65
2022-10-17T16:57:02.988Z,7.74
2022-10-17T16:59:49.869Z,7.66
2022-10-17T17:02:21.335Z,7.73
2022-10-17T17:04:55.569Z,7.93
2022-10-17T17:07:25.750Z,7.88
2022-10-17T17:09:56.426Z,7.85
2022-10-17T17:12:30.347Z,7.81
2022-10-17T17:15:02.153Z,7.78
2022-10-17T17:17:50.215Z,7.95
2022-10-17T17:21:39.400Z,7.99
2022-10-17T17:24:17.286Z,7.89
2022-10-17T17:26:56.066Z,8.01
2022-10-17T17:29:45.779Z,8.01
2022-10-17T17:32:24.802Z,7.97
2022-10-17T17:35:52.911Z,7.91
2022-10-17T17:39:00.354Z,8.02
2022-10-17T17:41:32.229Z,8.26
2022-10-17T17:44:05.951Z,8.32
2022-10-17T17:46:44.147Z,8.11
2022-10-17T17:53:13.334Z,8.09
2022-10-17T18:00:50.091Z,7.96
2022-10-17T18:03:30.172Z,7.84
2022-10-17T18:06:15.539Z,7.86
2022-10-17T18:09:06.917Z,7.81
2022-10-17T18:11:42.746Z,7.77
2022-10-17T18:14:16.934Z,7.66
2022-10-17T18:17:43.993Z,7.74
2022-10-17T18:20:50.112Z,7.84
2022-10-17T18:24:32.675Z,7.90
2022-10-17T20:21:08.002Z,7.20
2022-10-17T20:23:45.794Z,7.21
2022-10-17T20:29:17.165Z,7.18
2022-10-17T20:31:48.155Z,7.12
2022-10-17T20:34:19.459Z,7.05
2022-10-17T20:36:50.424Z,7.10
2022-10-17T20:39:22.515Z,7.09
2022-10-17T20:41:52.487Z,7.04
2022-10-17T20:44:22.184Z,7.08
2022-10-17T20:47:01.874Z,7.12
2022-10-17T20:49:36.252Z,7.17
2022-10-17T20:52:07.883Z,7.08
2022-10-17T20:54:38.362Z,7.13
2022-10-17T20:57:07.969Z,7.23
2022-10-17T20:59:41.123Z,7.31
2022-10-17T21:02:14.429Z,7.23
2022-10-17T21:04:46.654Z,7.24
2022-10-17T21:07:18.157Z,7.28
2022-10-17T21:09:52.475Z,7.24
2022-10-17T21:12:42.866Z,7.24
2022-10-17T21:15:12.666Z,7.30
2022-10-17T21:17:42.308Z,7.23
2022-10-17T21:20:13.024Z,7.20
2022-10-17T21:22:44.236Z,7.15
2022-10-17T21:25:14.116Z,7.22
2022-10-17T21:27:43.348Z,7.13
2022-10-17T21:30:18.339Z,7.03
2022-10-17T21:32:51.354Z,6.96
2022-10-17T21:35:22.178Z,6.96
2022-10-17T21:37:53.198Z,6.99
2022-10-17T21:41:38.821Z,6.97
2022-10-17T21:44:18.364Z,6.86
2022-10-17T21:46:48.892Z,6.84
2022-10-17T21:49:20.869Z,6.76
2022-10-17T21:51:51.020Z,6.71
2022-10-17T21:54:24.288Z,6.78
2022-10-17T21:56:54.254Z,6.74
2022-10-17T21:59:24.086Z,6.78
2022-10-17T22:01:54.006Z,6.81
2022-10-17T22:04:25.399Z,6.77
2022-10-17T22:06:55.049Z,6.66
2022-10-17T22:09:29.073Z,6.62
2022-10-17T22:11:59.348Z,6.59
2022-10-17T22:14:29.590Z,6.56
2022-10-17T22:16:59.231Z,6.55
2022-10-17T22:19:28.667Z,6.56
2022-10-17T22:21:58.139Z,6.52
2022-10-17T22:24:28.917Z,6.46
2022-10-17T22:26:58.318Z,6.42
2022-10-17T22:29:27.809Z,6.32
2022-10-17T22:31:57.324Z,6.20
2022-10-17T22:34:26.798Z,6.25
2022-10-17T22:36:56.392Z,6.22
2022-10-17T22:39:25.997Z,6.24
2022-10-17T22:41:57.839Z,6.20
2022-10-17T22:44:27.181Z,6.20
2022-10-17T22:46:56.627Z,6.17
2022-10-17T22:49:26.032Z,6.16
2022-10-17T22:51:55.516Z,6.11
2022-10-17T22:54:24.724Z,6.08
2022-10-17T22:56:54.051Z,6.15
2022-10-17T22:59:25.417Z,6.29
2022-10-17T23:01:54.947Z,6.26
2022-10-17T23:04:24.228Z,6.20
2022-10-17T23:06:53.659Z,6.13
2022-10-17T23:09:23.147Z,6.16
2022-10-17T23:11:52.606Z,6.08
2022-10-17T23:14:21.805Z,5.96
2022-10-17T23:16:52.571Z,5.98
2022-10-17T23:19:22.239Z,5.95
2022-10-17T23:21:51.790Z,6.04
2022-10-17T23:24:21.743Z,6.06
2022-10-17T23:26:50.880Z,6.15
2022-10-17T23:29:20.306Z,6.10
2022-10-17T23:31:49.565Z,6.06
2022-10-17T23:34:20.183Z,6.15
2022-10-17T23:36:49.763Z,6.10
2022-10-17T23:39:19.071Z,5.98
2022-10-17T23:41:48.670Z,5.94
2022-10-17T23:44:18.295Z,5.94
2022-10-17T23:46:47.854Z,5.95
2022-10-17T23:49:17.620Z,5.95
2022-10-17T23:51:48.861Z,5.94
2022-10-17T23:54:18.450Z,5.81
2022-10-17T23:56:47.884Z,5.71
2022-10-17T23:59:17.523Z,5.70
